sensor_id;sensor_type;location;lat;lon;timestamp;pressure;altitude;pressure_sealevel;temperature;humidity
55517;BME280;41724;51.176;-0.708;2023-05-22T00:02:06;101568.67;;;16.04;38.17
55517;BME280;41724;51.176;-0.708;2023-05-22T00:04:33;101574.36;;;16.23;38.17
55517;BME280;41724;51.176;-0.708;2023-05-22T00:07:01;101570.29;;;16.55;37.79
55517;BME280;41724;51.176;-0.708;2023-05-22T00:09:28;101565.47;;;16.39;37.72
55517;BME280;41724;51.176;-0.708;2023-05-22T00:11:55;101568.53;;;16.71;37.92
55517;BME280;41724;51.176;-0.708;2023-05-22T00:14:22;101565.44;;;16.27;38.36
55517;BME280;41724;51.176;-0.708;2023-05-22T00:16:49;101561.70;;;16.61;38.16
55517;BME280;41724;51.176;-0.708;2023-05-22T00:19:16;101556.07;;;16.34;37.85
55517;BME280;41724;51.176;-0.708;2023-05-22T00:21:44;101553.60;;;16.86;37.83
55517;BME280;41724;51.176;-0.708;2023-05-22T00:24:11;101556.81;;;17.03;38.23
55517;BME280;41724;51.176;-0.708;2023-05-22T00:26:38;101555.16;;;16.77;38.14
55517;BME280;41724;51.176;-0.708;2023-05-22T00:29:05;101555.67;;;16.99;38.36
55517;BME280;41724;51.176;-0.708;2023-05-22T00:31:32;101552.08;;;17.01;38.97
55517;BME280;41724;51.176;-0.708;2023-05-22T00:33:59;101549.46;;;16.74;38.57
55517;BME280;41724;51.176;-0.708;2023-05-22T00:36:26;101543.93;;;16.87;38.31
55517;BME280;41724;51.176;-0.708;2023-05-22T00:38:53;101539.06;;;16.40;38.25
55517;BME280;41724;51.176;-0.708;2023-05-22T00:41:20;101540.79;;;16.95;38.63
55517;BME280;41724;51.176;-0.708;2023-05-22T00:43:48;101542.58;;;16.97;38.79
55517;BME280;41724;51.176;-0.708;2023-05-22T00:46:15;101537.99;;;16.84;39.20
55517;BME280;41724;51.176;-0.708;2023-05-22T00:48:42;101532.52;;;17.02;38.64
55517;BME280;41724;51.176;-0.708;2023-05-22T00:51:09;101532.48;;;16.94;39.02
55517;BME280;41724;51.176;-0.708;2023-05-22T00:53:37;101533.74;;;16.78;39.06
55517;BME280;41724;51.176;-0.708;2023-05-22T00:56:05;101532.20;;;17.02;39.52
55517;BME280;41724;51.176;-0.708;2023-05-22T00:58:32;101529.02;;;16.85;39.21
55517;BME280;41724;51.176;-0.708;2023-05-22T01:00:59;101525.32;;;16.90;39.11
55517;BME280;41724;51.176;-0.708;2023-05-22T01:03:26;101527.74;;;16.76;39.91
55517;BME280;41724;51.176;-0.708;2023-05-22T01:05:54;101526.70;;;16.72;39.73
55517;BME280;41724;51.176;-0.708;2023-05-22T01:08:21;101526.14;;;16.73;40.02
55517;BME280;41724;51.176;-0.708;2023-05-22T01:10:55;101523.91;;;16.91;39.48
55517;BME280;41724;51.176;-0.708;2023-05-22T01:13:30;101522.97;;;16.68;39.65
55517;BME280;41724;51.176;-0.708;2023-05-22T01:16:04;101518.49;;;16.78;40.00
55517;BME280;41724;51.176;-0.708;2023-05-22T01:18:42;101519.94;;;16.79;39.72
55517;BME280;41724;51.176;-0.708;2023-05-22T01:21:18;101520.98;;;16.61;39.88
55517;BME280;41724;51.176;-0.708;2023-05-22T01:24:07;101521.60;;;17.20;39.92
55517;BME280;41724;51.176;-0.708;2023-05-22T01:27:41;101517.07;;;16.69;39.83
55517;BME280;41724;51.176;-0.708;2023-05-22T01:32:57;101515.50;;;16.70;40.32
55517;BME280;41724;51.176;-0.708;2023-05-22T01:35:26;101509.11;;;16.39;40.87
55517;BME280;41724;51.176;-0.708;2023-05-22T01:37:53;101506.99;;;16.61;40.67
55517;BME280;41724;51.176;-0.708;2023-05-22T01:40:21;101506.29;;;16.28;41.01
55517;BME280;41724;51.176;-0.708;2023-05-22T01:42:49;101507.09;;;16.38;41.50
55517;BME280;41724;51.176;-0.708;2023-05-22T01:45:16;101507.08;;;16.01;42.16
55517;BME280;41724;51.176;-0.708;2023-05-22T01:47:43;101507.69;;;15.96;41.88
55517;BME280;41724;51.176;-0.708;2023-05-22T01:50:10;101509.21;;;15.93;42.51
55517;BME280;41724;51.176;-0.708;2023-05-22T01:52:45;101505.37;;;15.95;42.46
55517;BME280;41724;51.176;-0.708;2023-05-22T01:55:21;101500.53;;;16.18;42.47
55517;BME280;41724;51.176;-0.708;2023-05-22T01:57:56;101502.39;;;15.86;42.37
55517;BME280;41724;51.176;-0.708;2023-05-22T02:00:27;101499.53;;;15.51;43.15
55517;BME280;41724;51.176;-0.708;2023-05-22T02:02:57;101499.81;;;15.84;43.06
55517;BME280;41724;51.176;-0.708;2023-05-22T02:05:28;101499.85;;;16.05;43.14
55517;BME280;41724;51.176;-0.708;2023-05-22T02:07:59;101500.31;;;15.60;43.18
55517;BME280;41724;51.176;-0.708;2023-05-22T02:10:27;101503.46;;;15.82;43.43
55517;BME280;41724;51.176;-0.708;2023-05-22T02:12:55;101507.42;;;15.63;43.46
55517;BME280;41724;51.176;-0.708;2023-05-22T02:15:23;101503.96;;;15.58;43.83
55517;BME280;41724;51.176;-0.708;2023-05-22T02:17:50;101499.17;;;15.70;43.46
55517;BME280;41724;51.176;-0.708;2023-05-22T02:20:17;101495.81;;;15.61;43.63
55517;BME280;41724;51.176;-0.708;2023-05-22T02:22:46;101493.82;;;15.88;43.78
55517;BME280;41724;51.176;-0.708;2023-05-22T02:25:14;101495.34;;;15.76;43.28
55517;BME280;41724;51.176;-0.708;2023-05-22T02:27:42;101490.55;;;15.83;43.70
55517;BME280;41724;51.176;-0.708;2023-05-22T02:30:11;101488.73;;;15.78;43.64
55517;BME280;41724;51.176;-0.708;2023-05-22T02:32:38;101486.49;;;15.84;43.58
55517;BME280;41724;51.176;-0.708;2023-05-22T02:35:06;101483.12;;;16.20;43.31
55517;BME280;41724;51.176;-0.708;2023-05-22T02:37:34;101480.02;;;15.96;43.29
55517;BME280;41724;51.176;-0.708;2023-05-22T02:40:02;101486.64;;;15.67;43.11
55517;BME280;41724;51.176;-0.708;2023-05-22T02:42:29;101483.50;;;15.99;43.00
55517;BME280;41724;51.176;-0.708;2023-05-22T02:44:56;101484.04;;;15.94;43.18
55517;BME280;41724;51.176;-0.708;2023-05-22T02:47:23;101485.29;;;16.05;42.52
55517;BME280;41724;51.176;-0.708;2023-05-22T02:49:50;101487.10;;;16.22;42.27
55517;BME280;41724;51.176;-0.708;2023-05-22T02:52:17;101488.97;;;16.26;42.86
55517;BME280;41724;51.176;-0.708;2023-05-22T02:54:44;101486.74;;;16.02;42.28
55517;BME280;41724;51.176;-0.708;2023-05-22T02:57:11;101488.05;;;16.21;42.54
55517;BME280;41724;51.176;-0.708;2023-05-22T02:59:38;101485.30;;;16.27;42.88
55517;BME280;41724;51.176;-0.708;2023-05-22T03:02:06;101487.38;;;16.39;42.79
55517;BME280;41724;51.176;-0.708;2023-05-22T03:04:33;101489.43;;;16.32;42.68
55517;BME280;41724;51.176;-0.708;2023-05-22T03:07:00;101486.31;;;16.06;43.78
55517;BME280;41724;51.176;-0.708;2023-05-22T03:09:27;101489.03;;;16.14;43.35
55517;BME280;41724;51.176;-0.708;2023-05-22T03:11:54;101490.14;;;16.42;43.68
55517;BME280;41724;51.176;-0.708;2023-05-22T03:14:21;101487.35;;;15.89;44.18
55517;BME280;41724;51.176;-0.708;2023-05-22T03:16:48;101483.81;;;15.83;44.09
55517;BME280;41724;51.176;-0.708;2023-05-22T03:19:16;101479.75;;;16.17;44.02
55517;BME280;41724;51.176;-0.708;2023-05-22T03:21:43;101478.25;;;15.97;43.85
55517;BME280;41724;51.176;-0.708;2023-05-22T03:24:10;101475.79;;;15.86;44.17
55517;BME280;41724;51.176;-0.708;2023-05-22T03:26:37;101477.68;;;15.83;44.63
55517;BME280;41724;51.176;-0.708;2023-05-22T03:29:04;101477.53;;;15.76;45.25
55517;BME280;41724;51.176;-0.708;2023-05-22T03:31:32;101476.06;;;16.08;44.22
55517;BME280;41724;51.176;-0.708;2023-05-22T03:33:59;101475.68;;;16.35;43.60
55517;BME280;41724;51.176;-0.708;2023-05-22T03:36:26;101478.35;;;16.46;42.60
55517;BME280;41724;51.176;-0.708;2023-05-22T03:38:53;101472.73;;;16.42;43.20
55517;BME280;41724;51.176;-0.708;2023-05-22T03:41:20;101471.32;;;16.76;41.72
55517;BME280;41724;51.176;-0.708;2023-05-22T03:43:47;101472.90;;;16.42;42.37
55517;BME280;41724;51.176;-0.708;2023-05-22T03:46:15;101471.27;;;16.57;42.55
55517;BME280;41724;51.176;-0.708;2023-05-22T03:48:43;101471.68;;;16.20;42.37
55517;BME280;41724;51.176;-0.708;2023-05-22T03:51:11;101469.55;;;16.53;42.12
55517;BME280;41724;51.176;-0.708;2023-05-22T03:53:39;101468.81;;;16.36;42.08
55517;BME280;41724;51.176;-0.708;2023-05-22T03:56:06;101465.64;;;16.20;42.26
55517;BME280;41724;51.176;-0.708;2023-05-22T03:58:34;101468.39;;;16.30;42.43
55517;BME280;41724;51.176;-0.708;2023-05-22T04:01:00;101465.82;;;15.78;43.31
55517;BME280;41724;51.176;-0.708;2023-05-22T04:03:28;101467.05;;;15.64;43.00
55517;BME280;41724;51.176;-0.708;2023-05-22T04:05:55;101464.40;;;15.69;43.07
55517;BME280;41724;51.176;-0.708;2023-05-22T04:08:22;101468.59;;;15.72;43.56
55517;BME280;41724;51.176;-0.708;2023-05-22T04:10:49;101469.51;;;15.86;43.60
55517;BME280;41724;51.176;-0.708;2023-05-22T04:13:16;101473.68;;;15.87;43.63
55517;BME280;41724;51.176;-0.708;2023-05-22T04:15:43;101475.78;;;15.93;43.95
55517;BME280;41724;51.176;-0.708;2023-05-22T04:18:11;101478.74;;;15.87;43.85
55517;BME280;41724;51.176;-0.708;2023-05-22T04:20:38;101480.45;;;15.85;43.69
55517;BME280;41724;51.176;-0.708;2023-05-22T04:23:05;101481.73;;;15.86;43.62
55517;BME280;41724;51.176;-0.708;2023-05-22T04:25:32;101480.33;;;16.09;44.16
55517;BME280;41724;51.176;-0.708;2023-05-22T04:27:59;101481.52;;;15.81;44.22
55517;BME280;41724;51.176;-0.708;2023-05-22T04:30:26;101480.68;;;15.91;44.14
55517;BME280;41724;51.176;-0.708;2023-05-22T04:32:53;101485.92;;;15.78;43.96
55517;BME280;41724;51.176;-0.708;2023-05-22T04:35:20;101482.63;;;15.73;44.17
55517;BME280;41724;51.176;-0.708;2023-05-22T04:37:47;101481.56;;;15.75;43.57
55517;BME280;41724;51.176;-0.708;2023-05-22T04:40:14;101485.80;;;15.93;44.14
55517;BME280;41724;51.176;-0.708;2023-05-22T04:42:41;101481.29;;;16.03;44.47
55517;BME280;41724;51.176;-0.708;2023-05-22T04:45:09;101481.43;;;16.14;44.76
55517;BME280;41724;51.176;-0.708;2023-05-22T04:47:36;101484.25;;;16.16;44.91
55517;BME280;41724;51.176;-0.708;2023-05-22T04:50:04;101486.66;;;15.94;45.05
55517;BME280;41724;51.176;-0.708;2023-05-22T04:52:31;101488.09;;;15.93;44.70
55517;BME280;41724;51.176;-0.708;2023-05-22T04:54:58;101485.57;;;15.94;44.51
55517;BME280;41724;51.176;-0.708;2023-05-22T04:57:25;101487.88;;;16.14;44.45
55517;BME280;41724;51.176;-0.708;2023-05-22T04:59:53;101492.10;;;16.26;44.59
55517;BME280;41724;51.176;-0.708;2023-05-22T05:02:20;101491.54;;;16.06;44.55
55517;BME280;41724;51.176;-0.708;2023-05-22T05:04:47;101493.23;;;15.72;44.63
55517;BME280;41724;51.176;-0.708;2023-05-22T05:07:14;101493.73;;;15.78;45.44
55517;BME280;41724;51.176;-0.708;2023-05-22T05:09:41;101491.65;;;16.00;44.80
55517;BME280;41724;51.176;-0.708;2023-05-22T05:12:08;101492.92;;;16.14;44.38
55517;BME280;41724;51.176;-0.708;2023-05-22T05:14:35;101498.50;;;16.00;44.34
55517;BME280;41724;51.176;-0.708;2023-05-22T05:17:02;101499.32;;;16.33;43.67
55517;BME280;41724;51.176;-0.708;2023-05-22T05:19:29;101501.16;;;16.59;43.69
55517;BME280;41724;51.176;-0.708;2023-05-22T05:21:56;101501.43;;;16.65;43.35
55517;BME280;41724;51.176;-0.708;2023-05-22T05:24:23;101503.77;;;16.87;43.66
55517;BME280;41724;51.176;-0.708;2023-05-22T05:26:50;101503.42;;;16.65;43.24
55517;BME280;41724;51.176;-0.708;2023-05-22T05:29:18;101508.78;;;16.55;43.72
55517;BME280;41724;51.176;-0.708;2023-05-22T05:31:45;101511.17;;;16.65;43.39
55517;BME280;41724;51.176;-0.708;2023-05-22T05:34:11;101516.09;;;16.51;43.04
55517;BME280;41724;51.176;-0.708;2023-05-22T05:36:39;101515.34;;;16.77;42.92
55517;BME280;41724;51.176;-0.708;2023-05-22T05:39:06;101520.77;;;17.29;43.37
55517;BME280;41724;51.176;-0.708;2023-05-22T05:41:33;101523.96;;;16.92;43.16
55517;BME280;41724;51.176;-0.708;2023-05-22T05:44:00;101522.16;;;17.06;42.50
55517;BME280;41724;51.176;-0.708;2023-05-22T05:46:27;101524.77;;;17.02;42.14
55517;BME280;41724;51.176;-0.708;2023-05-22T05:48:54;101523.20;;;17.18;41.41
55517;BME280;41724;51.176;-0.708;2023-05-22T05:51:21;101524.83;;;17.41;41.98
55517;BME280;41724;51.176;-0.708;2023-05-22T05:53:48;101523.95;;;17.34;42.62
55517;BME280;41724;51.176;-0.708;2023-05-22T05:56:16;101524.66;;;17.36;42.21
55517;BME280;41724;51.176;-0.708;2023-05-22T05:58:43;101524.36;;;17.10;41.16
55517;BME280;41724;51.176;-0.708;2023-05-22T06:01:11;101523.91;;;17.44;41.49
55517;BME280;41724;51.176;-0.708;2023-05-22T06:03:37;101519.46;;;17.67;41.77
55517;BME280;41724;51.176;-0.708;2023-05-22T06:06:05;101518.18;;;17.87;41.96
55517;BME280;41724;51.176;-0.708;2023-05-22T06:08:31;101521.01;;;17.37;40.76
55517;BME280;41724;51.176;-0.708;2023-05-22T06:10:58;101527.65;;;17.02;42.21
55517;BME280;41724;51.176;-0.708;2023-05-22T06:13:25;101526.51;;;17.19;41.86
55517;BME280;41724;51.176;-0.708;2023-05-22T06:15:52;101525.89;;;17.49;41.68
55517;BME280;41724;51.176;-0.708;2023-05-22T06:18:19;101528.74;;;17.54;42.04
55517;BME280;41724;51.176;-0.708;2023-05-22T06:20:46;101533.54;;;17.65;40.72
55517;BME280;41724;51.176;-0.708;2023-05-22T06:23:13;101531.99;;;18.18;41.52
55517;BME280;41724;51.176;-0.708;2023-05-22T06:25:40;101540.11;;;17.91;41.00
55517;BME280;41724;51.176;-0.708;2023-05-22T06:28:07;101538.97;;;18.12;40.25
55517;BME280;41724;51.176;-0.708;2023-05-22T06:30:35;101541.98;;;17.65;40.27
55517;BME280;41724;51.176;-0.708;2023-05-22T06:33:02;101547.73;;;18.22;40.83
55517;BME280;41724;51.176;-0.708;2023-05-22T06:35:30;101544.22;;;17.91;40.27
55517;BME280;41724;51.176;-0.708;2023-05-22T06:37:57;101548.95;;;17.79;39.92
55517;BME280;41724;51.176;-0.708;2023-05-22T06:40:24;101551.36;;;18.06;40.68
55517;BME280;41724;51.176;-0.708;2023-05-22T06:42:52;101552.53;;;18.22;40.85
55517;BME280;41724;51.176;-0.708;2023-05-22T06:45:18;101555.95;;;17.63;40.77
55517;BME280;41724;51.176;-0.708;2023-05-22T06:47:45;101559.14;;;18.21;40.44
55517;BME280;41724;51.176;-0.708;2023-05-22T06:50:12;101559.92;;;17.83;41.97
55517;BME280;41724;51.176;-0.708;2023-05-22T06:52:44;101565.43;;;17.11;42.08
55517;BME280;41724;51.176;-0.708;2023-05-22T06:55:11;101565.56;;;17.80;41.09
55517;BME280;41724;51.176;-0.708;2023-05-22T06:57:38;101564.07;;;17.57;41.40
55517;BME280;41724;51.176;-0.708;2023-05-22T07:00:07;101563.85;;;17.68;41.23
55517;BME280;41724;51.176;-0.708;2023-05-22T07:02:35;101564.56;;;17.60;42.11
55517;BME280;41724;51.176;-0.708;2023-05-22T07:05:02;101567.72;;;18.28;41.02
55517;BME280;41724;51.176;-0.708;2023-05-22T07:07:29;101570.10;;;18.02;41.35
55517;BME280;41724;51.176;-0.708;2023-05-22T07:09:57;101578.16;;;17.43;42.08
55517;BME280;41724;51.176;-0.708;2023-05-22T07:12:24;101575.34;;;18.30;41.55
55517;BME280;41724;51.176;-0.708;2023-05-22T07:14:51;101580.14;;;18.23;41.60
55517;BME280;41724;51.176;-0.708;2023-05-22T07:17:18;101577.94;;;18.38;39.85
55517;BME280;41724;51.176;-0.708;2023-05-22T07:19:45;101579.14;;;18.26;41.11
55517;BME280;41724;51.176;-0.708;2023-05-22T07:22:12;101581.83;;;18.52;41.06
55517;BME280;41724;51.176;-0.708;2023-05-22T07:24:39;101580.50;;;18.25;40.67
55517;BME280;41724;51.176;-0.708;2023-05-22T07:27:06;101583.74;;;18.38;40.51
55517;BME280;41724;51.176;-0.708;2023-05-22T07:29:33;101581.37;;;18.56;40.33
55517;BME280;41724;51.176;-0.708;2023-05-22T07:32:00;101584.23;;;18.36;40.01
55517;BME280;41724;51.176;-0.708;2023-05-22T07:34:27;101588.25;;;18.69;40.73
55517;BME280;41724;51.176;-0.708;2023-05-22T07:36:54;101591.93;;;18.54;39.70
55517;BME280;41724;51.176;-0.708;2023-05-22T07:39:21;101596.81;;;18.69;41.30
55517;BME280;41724;51.176;-0.708;2023-05-22T07:41:48;101595.00;;;18.33;40.57
55517;BME280;41724;51.176;-0.708;2023-05-22T07:44:16;101597.33;;;18.80;40.26
55517;BME280;41724;51.176;-0.708;2023-05-22T07:46:43;101596.67;;;18.48;39.16
55517;BME280;41724;51.176;-0.708;2023-05-22T07:49:10;101598.46;;;19.12;39.23
55517;BME280;41724;51.176;-0.708;2023-05-22T07:51:37;101602.46;;;19.55;39.93
55517;BME280;41724;51.176;-0.708;2023-05-22T07:54:04;101609.73;;;18.67;40.06
55517;BME280;41724;51.176;-0.708;2023-05-22T07:56:31;101616.61;;;18.50;41.79
55517;BME280;41724;51.176;-0.708;2023-05-22T07:59:03;101614.45;;;18.41;40.16
55517;BME280;41724;51.176;-0.708;2023-05-22T08:01:30;101619.66;;;18.84;39.95
55517;BME280;41724;51.176;-0.708;2023-05-22T08:03:57;101616.32;;;18.99;39.72
55517;BME280;41724;51.176;-0.708;2023-05-22T08:06:24;101615.18;;;19.54;39.90
55517;BME280;41724;51.176;-0.708;2023-05-22T08:08:51;101614.18;;;18.98;39.48
55517;BME280;41724;51.176;-0.708;2023-05-22T08:11:17;101611.64;;;19.80;39.54
55517;BME280;41724;51.176;-0.708;2023-05-22T08:13:44;101613.88;;;19.80;38.57
55517;BME280;41724;51.176;-0.708;2023-05-22T08:16:12;101616.74;;;19.39;39.45
55517;BME280;41724;51.176;-0.708;2023-05-22T08:18:40;101625.59;;;19.01;39.02
55517;BME280;41724;51.176;-0.708;2023-05-22T08:21:07;101628.47;;;18.86;39.41
55517;BME280;41724;51.176;-0.708;2023-05-22T08:23:34;101628.76;;;19.65;38.65
55517;BME280;41724;51.176;-0.708;2023-05-22T08:26:01;101630.12;;;19.12;39.42
55517;BME280;41724;51.176;-0.708;2023-05-22T08:28:28;101627.96;;;19.49;39.28
55517;BME280;41724;51.176;-0.708;2023-05-22T08:30:55;101632.23;;;18.64;38.96
55517;BME280;41724;51.176;-0.708;2023-05-22T08:33:22;101636.41;;;19.18;38.81
55517;BME280;41724;51.176;-0.708;2023-05-22T08:35:54;101636.80;;;18.59;37.67
55517;BME280;41724;51.176;-0.708;2023-05-22T08:38:21;101636.32;;;19.75;38.58
55517;BME280;41724;51.176;-0.708;2023-05-22T08:40:48;101635.34;;;20.00;37.44
55517;BME280;41724;51.176;-0.708;2023-05-22T08:43:19;101638.86;;;20.32;37.53
55517;BME280;41724;51.176;-0.708;2023-05-22T08:45:47;101642.84;;;19.77;37.00
55517;BME280;41724;51.176;-0.708;2023-05-22T08:48:19;101648.27;;;19.70;38.20
55517;BME280;41724;51.176;-0.708;2023-05-22T08:50:53;101646.99;;;19.49;37.50
55517;BME280;41724;51.176;-0.708;2023-05-22T08:53:21;101646.38;;;19.54;37.30
55517;BME280;41724;51.176;-0.708;2023-05-22T08:55:48;101651.87;;;17.98;38.11
55517;BME280;41724;51.176;-0.708;2023-05-22T08:58:15;101648.46;;;19.67;37.91
55517;BME280;41724;51.176;-0.708;2023-05-22T09:00:43;101649.11;;;19.78;37.31
55517;BME280;41724;51.176;-0.708;2023-05-22T09:03:11;101646.48;;;19.15;36.89
55517;BME280;41724;51.176;-0.708;2023-05-22T09:05:38;101643.46;;;19.96;36.69
55517;BME280;41724;51.176;-0.708;2023-05-22T09:08:05;101642.98;;;19.58;37.13
55517;BME280;41724;51.176;-0.708;2023-05-22T09:10:32;101646.08;;;20.22;37.11
55517;BME280;41724;51.176;-0.708;2023-05-22T09:13:00;101647.50;;;20.10;35.77
55517;BME280;41724;51.176;-0.708;2023-05-22T09:15:29;101649.48;;;19.73;37.15
55517;BME280;41724;51.176;-0.708;2023-05-22T09:17:57;101651.25;;;20.55;36.92
55517;BME280;41724;51.176;-0.708;2023-05-22T09:20:23;101653.07;;;20.38;36.13
55517;BME280;41724;51.176;-0.708;2023-05-22T09:22:51;101655.46;;;20.50;36.74
55517;BME280;41724;51.176;-0.708;2023-05-22T09:25:19;101657.90;;;20.01;37.74
55517;BME280;41724;51.176;-0.708;2023-05-22T09:27:46;101656.49;;;19.99;37.26
55517;BME280;41724;51.176;-0.708;2023-05-22T09:30:15;101659.73;;;19.84;37.00
55517;BME280;41724;51.176;-0.708;2023-05-22T09:32:42;101654.12;;;20.25;36.67
55517;BME280;41724;51.176;-0.708;2023-05-22T09:35:09;101656.34;;;20.40;36.77
55517;BME280;41724;51.176;-0.708;2023-05-22T09:37:36;101656.27;;;20.33;35.82
55517;BME280;41724;51.176;-0.708;2023-05-22T09:40:06;101652.87;;;20.86;35.67
55517;BME280;41724;51.176;-0.708;2023-05-22T09:42:34;101653.17;;;21.12;36.09
55517;BME280;41724;51.176;-0.708;2023-05-22T09:45:03;101646.67;;;21.67;36.27
55517;BME280;41724;51.176;-0.708;2023-05-22T09:47:31;101641.46;;;20.35;35.80
55517;BME280;41724;51.176;-0.708;2023-05-22T09:50:00;101644.95;;;21.39;35.17
55517;BME280;41724;51.176;-0.708;2023-05-22T09:52:28;101639.04;;;21.72;35.37
55517;BME280;41724;51.176;-0.708;2023-05-22T09:54:57;101648.53;;;21.25;35.78
55517;BME280;41724;51.176;-0.708;2023-05-22T09:57:27;101645.78;;;21.21;34.84
55517;BME280;41724;51.176;-0.708;2023-05-22T09:59:55;101642.71;;;20.35;35.73
55517;BME280;41724;51.176;-0.708;2023-05-22T10:02:24;101640.44;;;20.16;37.39
55517;BME280;41724;51.176;-0.708;2023-05-22T10:04:53;101640.69;;;21.15;36.01
55517;BME280;41724;51.176;-0.708;2023-05-22T10:07:22;101636.93;;;20.26;37.07
55517;BME280;41724;51.176;-0.708;2023-05-22T10:09:51;101634.52;;;21.21;36.33
55517;BME280;41724;51.176;-0.708;2023-05-22T10:12:23;101639.70;;;22.25;33.37
55517;BME280;41724;51.176;-0.708;2023-05-22T10:14:53;101638.39;;;22.18;35.58
55517;BME280;41724;51.176;-0.708;2023-05-22T10:17:22;101640.07;;;22.71;33.83
55517;BME280;41724;51.176;-0.708;2023-05-22T10:19:55;101638.95;;;22.86;34.17
55517;BME280;41724;51.176;-0.708;2023-05-22T10:22:24;101638.61;;;22.42;33.87
55517;BME280;41724;51.176;-0.708;2023-05-22T10:24:54;101640.55;;;22.75;33.11
55517;BME280;41724;51.176;-0.708;2023-05-22T10:27:21;101649.70;;;21.55;34.76
55517;BME280;41724;51.176;-0.708;2023-05-22T10:29:54;101645.76;;;21.54;34.83
55517;BME280;41724;51.176;-0.708;2023-05-22T10:32:32;101643.81;;;21.47;34.19
55517;BME280;41724;51.176;-0.708;2023-05-22T10:35:05;101649.27;;;21.51;35.55
55517;BME280;41724;51.176;-0.708;2023-05-22T10:37:47;101645.40;;;19.89;37.24
55517;BME280;41724;51.176;-0.708;2023-05-22T10:40:21;101647.31;;;20.29;36.82
55517;BME280;41724;51.176;-0.708;2023-05-22T10:42:49;101646.16;;;20.26;36.63
55517;BME280;41724;51.176;-0.708;2023-05-22T10:45:16;101652.36;;;21.44;36.46
55517;BME280;41724;51.176;-0.708;2023-05-22T10:47:44;101653.28;;;21.87;36.12
55517;BME280;41724;51.176;-0.708;2023-05-22T10:50:11;101655.02;;;20.78;34.44
55517;BME280;41724;51.176;-0.708;2023-05-22T10:52:39;101658.32;;;21.24;34.80
55517;BME280;41724;51.176;-0.708;2023-05-22T10:55:07;101656.18;;;22.08;34.49
55517;BME280;41724;51.176;-0.708;2023-05-22T10:57:37;101656.46;;;22.35;33.76
55517;BME280;41724;51.176;-0.708;2023-05-22T11:00:07;101652.81;;;22.14;34.27
55517;BME280;41724;51.176;-0.708;2023-05-22T11:02:39;101652.19;;;22.06;32.96
55517;BME280;41724;51.176;-0.708;2023-05-22T11:05:39;101648.43;;;21.60;33.89
55517;BME280;41724;51.176;-0.708;2023-05-22T11:08:38;101645.09;;;22.49;35.11
55517;BME280;41724;51.176;-0.708;2023-05-22T11:11:12;101639.76;;;22.73;36.13
55517;BME280;41724;51.176;-0.708;2023-05-22T11:13:50;101638.21;;;22.33;35.03
55517;BME280;41724;51.176;-0.708;2023-05-22T11:16:18;101632.20;;;23.06;33.44
55517;BME280;41724;51.176;-0.708;2023-05-22T11:18:46;101623.73;;;22.68;32.88
55517;BME280;41724;51.176;-0.708;2023-05-22T11:21:14;101624.88;;;22.58;32.84
55517;BME280;41724;51.176;-0.708;2023-05-22T11:23:41;101620.66;;;22.56;31.96
55517;BME280;41724;51.176;-0.708;2023-05-22T11:26:23;101618.59;;;23.01;33.56
55517;BME280;41724;51.176;-0.708;2023-05-22T11:28:53;101616.39;;;23.50;33.79
55517;BME280;41724;51.176;-0.708;2023-05-22T11:31:20;101616.26;;;23.53;34.47
55517;BME280;41724;51.176;-0.708;2023-05-22T11:33:48;101610.89;;;23.54;32.11
55517;BME280;41724;51.176;-0.708;2023-05-22T11:36:16;101605.94;;;23.41;33.26
55517;BME280;41724;51.176;-0.708;2023-05-22T11:38:44;101602.47;;;23.87;32.63
55517;BME280;41724;51.176;-0.708;2023-05-22T11:41:11;101607.78;;;24.54;33.06
55517;BME280;41724;51.176;-0.708;2023-05-22T11:43:41;101607.50;;;23.15;32.69
55517;BME280;41724;51.176;-0.708;2023-05-22T11:46:09;101607.11;;;23.80;33.07
55517;BME280;41724;51.176;-0.708;2023-05-22T11:48:39;101615.36;;;24.35;33.06
55517;BME280;41724;51.176;-0.708;2023-05-22T11:51:07;101616.56;;;23.53;32.30
55517;BME280;41724;51.176;-0.708;2023-05-22T11:53:34;101614.18;;;22.83;32.03
55517;BME280;41724;51.176;-0.708;2023-05-22T11:56:02;101617.35;;;23.18;31.73
55517;BME280;41724;51.176;-0.708;2023-05-22T11:58:30;101620.30;;;23.46;33.37
55517;BME280;41724;51.176;-0.708;2023-05-22T12:01:00;101610.59;;;23.86;32.50
55517;BME280;41724;51.176;-0.708;2023-05-22T12:03:27;101616.20;;;23.74;31.28
55517;BME280;41724;51.176;-0.708;2023-05-22T12:05:56;101609.40;;;23.35;31.94
55517;BME280;41724;51.176;-0.708;2023-05-22T12:08:24;101617.70;;;23.50;33.28
55517;BME280;41724;51.176;-0.708;2023-05-22T12:10:52;101615.08;;;23.16;34.09
55517;BME280;41724;51.176;-0.708;2023-05-22T12:13:23;101618.83;;;23.63;32.30
55517;BME280;41724;51.176;-0.708;2023-05-22T12:15:53;101620.88;;;22.54;33.41
55517;BME280;41724;51.176;-0.708;2023-05-22T12:18:26;101619.87;;;22.17;33.63
55517;BME280;41724;51.176;-0.708;2023-05-22T12:20:58;101617.30;;;21.53;34.48
55517;BME280;41724;51.176;-0.708;2023-05-22T12:23:26;101615.36;;;22.00;34.28
55517;BME280;41724;51.176;-0.708;2023-05-22T12:26:08;101606.25;;;21.71;33.98
55517;BME280;41724;51.176;-0.708;2023-05-22T12:28:38;101602.52;;;22.28;34.23
55517;BME280;41724;51.176;-0.708;2023-05-22T12:31:04;101613.70;;;21.83;34.74
55517;BME280;41724;51.176;-0.708;2023-05-22T12:33:33;101613.70;;;22.15;34.55
55517;BME280;41724;51.176;-0.708;2023-05-22T12:36:06;101611.23;;;22.47;35.29
55517;BME280;41724;51.176;-0.708;2023-05-22T12:38:33;101605.96;;;22.78;32.17
55517;BME280;41724;51.176;-0.708;2023-05-22T12:41:08;101608.69;;;23.02;31.96
55517;BME280;41724;51.176;-0.708;2023-05-22T12:43:35;101605.70;;;23.56;32.37
55517;BME280;41724;51.176;-0.708;2023-05-22T12:46:03;101610.09;;;23.01;32.25
55517;BME280;41724;51.176;-0.708;2023-05-22T12:48:30;101611.41;;;23.48;33.03
55517;BME280;41724;51.176;-0.708;2023-05-22T12:50:57;101611.65;;;23.81;31.99